Time;durP1;ratioP1;P1;durP2;ratioP2;P2;SDS_P1;SDS_P2;PMS_P1;PMS_P2;Temp;Humidity;BMP_temperature;BMP_pressure;BME280_temperature;BME280_humidity;BME280_pressure;Samples;Min_cycle;Max_cycle;Signal;HPM_P1;HPM_P2
2023/05/20 00:01:37;;;;;;;;;;;;;;;;;;5047780;28;19911;-42
2023/05/20 05:07:06;;;;;;;;;;;;;;;;;;5095885;28;19927;-42
2023/05/20 05:09:32;;;;;;;;;;;;;;;;;;5112866;28;20445;-43
2023/05/20 05:11:58;;;;;;;;;;;;;;;;;;5113417;28;19954;-42
2023/05/20 05:14:24;;;;;;;;;;;;;;;;;;5113319;28;20381;-41
2023/05/20 05:16:50;;;;;;;;;;;;;;;;;;5113404;28;19911;-42
2023/05/20 05:19:15;;;;;;;;;;;;;;;;;;5113099;28;19908;-42
2023/05/20 05:21:41;;;;;;;;;;;;;;;;;;5113036;28;19934;-42
2023/05/20 05:24:07;;;;;;;;;;;;;;;;;;5113710;28;19912;-42
2023/05/20 05:26:33;;;;;;;;;;;;;;;;;;5113243;28;19931;-42
2023/05/20 05:28:59;;;;;;;;;;;;;;;;;;5112852;28;19904;-41
2023/05/20 05:31:25;;;;;;;;;;;;;;;;;;5113068;28;19904;-43
2023/05/20 05:33:51;;;;;;;;;;;;;;;;;;5104737;28;19912;-42
2023/05/20 05:36:17;;;;;;;;;;;;;;;;;;5090714;28;19981;-43
2023/05/20 05:38:43;;;;;;;;;;;;;;;;;;5092619;28;19904;-41
2023/05/20 05:41:09;;;;;;;;;;;;;;;;;;5092851;28;19930;-43
2023/05/20 05:43:35;;;;;;;;;;;;;;;;;;5091640;28;19916;-44
2023/05/20 05:46:01;;;;;;;;;;;;;;;;;;5092595;28;19918;-42
2023/05/20 05:48:27;;;;;;;;;;;;;;;;;;5092367;28;19919;-43
2023/05/20 05:50:53;;;;;;;;;;;;;;;;;;5092278;28;19908;-42
2023/05/20 05:53:19;;;;;;;;;;;;;;;;;;5091503;28;19900;-42
2023/05/20 05:55:45;;;;;;;;;;;;;;;;;;5072016;28;19970;-42
2023/05/20 05:58:11;;;;;;;;;;;;;;;;;;5071513;28;19939;-43
2023/05/20 06:00:37;;;;;;;;;;;;;;;;;;5076465;28;19912;-42
2023/05/20 06:03:03;;;;;;;;;;;;;;;;;;5089016;28;19991;-42
2023/05/20 06:05:29;;;;;;;;;;;;;;;;;;5091900;28;20022;-42
2023/05/20 06:07:55;;;;;;;;;;;;;;;;;;5091775;28;19908;-44
2023/05/20 06:10:21;;;;;;;;;;;;;;;;;;5090072;28;19912;-42
2023/05/20 06:12:47;;;;;;;;;;;;;;;;;;5087361;28;19916;-42
2023/05/20 06:15:13;;;;;;;;;;;;;;;;;;5112046;28;19911;-43
2023/05/20 06:17:39;;;;;;;;;;;;;;;;;;5106911;28;20374;-43
2023/05/20 06:20:05;;;;;;;;;;;;;;;;;;5112285;28;19911;-42
2023/05/20 06:22:31;;;;;;;;;;;;;;;;;;5096083;28;19908;-43
2023/05/20 06:24:59;;;;;;;;;;;;;;;;;;5089910;28;19939;-43
2023/05/20 06:27:25;;;;;;;;;;;;;;;;;;5085094;28;19915;-43
2023/05/20 06:29:51;;;;;;;;;;;;;;;;;;5070612;28;19908;-43
2023/05/20 06:32:17;;;;;;;;;;;;;;;;;;5077345;28;19930;-44
2023/05/20 06:34:44;;;;;;;;;;;;;;;;;;5091211;28;19911;-43
2023/05/20 06:37:10;;;;;;;;;;;;;;;;;;5091257;28;19911;-44
2023/05/20 06:39:37;;;;;;;;;;;;;;;;;;5088231;28;19908;-42
2023/05/20 06:42:03;;;;;;;;;;;;;;;;;;5088966;28;19916;-43
2023/05/20 06:44:29;;;;;;;;;;;;;;;;;;5088978;28;19908;-42
2023/05/20 06:46:55;;;;;;;;;;;;;;;;;;5089843;28;19931;-42
2023/05/20 06:49:21;;;;;;;;;;;;;;;;;;5090706;28;19904;-42
2023/05/20 06:51:47;;;;;;;;;;;;;;;;;;5089729;28;19915;-43
2023/05/20 06:54:13;;;;;;;;;;;;;;;;;;5090881;28;19907;-43
2023/05/20 06:56:39;;;;;;;;;;;;;;;;;;5092470;28;19962;-43
2023/05/20 06:59:05;;;;;;;;;;;;;;;;;;5090205;28;19931;-44
2023/05/20 07:01:31;;;;;;;;;;;;;;;;;;5091036;28;19912;-43
2023/05/20 07:03:56;;;;;;;;;;;;;;;;;;5106235;28;19908;-43
2023/05/20 07:06:22;;;;;;;;;;;;;;;;;;5090408;28;19908;-43
2023/05/20 07:08:48;;;;;;;;;;;;;;;;;;5081751;28;19916;-44
2023/05/20 07:11:14;;;;;;;;;;;;;;;;;;5068795;28;19909;-42
2023/05/20 07:13:40;;;;;;;;;;;;;;;;;;5073660;28;20477;-42
2023/05/20 07:16:06;;;;;;;;;;;;;;;;;;5088493;28;19915;-45
2023/05/20 07:18:32;;;;;;;;;;;;;;;;;;5088011;28;19912;-42
2023/05/20 07:20:58;;;;;;;;;;;;;;;;;;5088321;28;20057;-44
2023/05/20 07:23:25;;;;;;;;;;;;;;;;;;5087531;28;20496;-43
2023/05/20 07:25:51;;;;;;;;;;;;;;;;;;5079132;28;20298;-43
2023/05/20 07:28:17;;;;;;;;;;;;;;;;;;5068656;28;19908;-42
2023/05/20 07:30:48;;;;;;;;;;;;;;;;;;5068102;28;20608;-44
2023/05/20 07:33:14;;;;;;;;;;;;;;;;;;5076442;28;19911;-43
2023/05/20 07:35:41;;;;;;;;;;;;;;;;;;5088425;28;19908;-45
2023/05/20 07:38:08;;;;;;;;;;;;;;;;;;5108203;28;19903;-42
2023/05/20 07:40:35;;;;;;;;;;;;;;;;;;5108477;28;19904;-44
2023/05/20 07:43:01;;;;;;;;;;;;;;;;;;5106709;28;19908;-43
2023/05/20 07:45:27;;;;;;;;;;;;;;;;;;5108026;28;19908;-44
2023/05/20 07:47:53;;;;;;;;;;;;;;;;;;5108109;28;19915;-42
2023/05/20 07:50:19;;;;;;;;;;;;;;;;;;5091766;28;19904;-43
2023/05/20 07:52:45;;;;;;;;;;;;;;;;;;5087682;28;19910;-43
2023/05/20 07:55:11;;;;;;;;;;;;;;;;;;5086633;28;20379;-42
2023/05/20 07:57:37;;;;;;;;;;;;;;;;;;5087600;28;19904;-43
2023/05/20 08:00:03;;;;;;;;;;;;;;;;;;5086686;28;19911;-45
2023/05/20 08:02:29;;;;;;;;;;;;;;;;;;5079794;28;19938;-45
2023/05/20 08:04:54;;;;;;;;;;;;;;;;;;5087932;28;19908;-43
2023/05/20 08:07:20;;;;;;;;;;;;;;;;;;5092380;28;19927;-41
2023/05/20 08:09:46;;;;;;;;;;;;;;;;;;5093237;28;19918;-47
2023/05/20 08:12:12;;;;;;;;;;;;;;;;;;5104106;28;20443;-43
2023/05/20 08:14:38;;;;;;;;;;;;;;;;;;5086977;28;19970;-42
2023/05/20 08:17:04;;;;;;;;;;;;;;;;;;5102899;28;19942;-43
2023/05/20 08:19:30;;;;;;;;;;;;;;;;;;5088388;28;20421;-44
2023/05/20 08:21:56;;;;;;;;;;;;;;;;;;5088452;28;19912;-43
2023/05/20 08:24:22;;;;;;;;;;;;;;;;;;5088412;28;19912;-43
2023/05/20 08:26:48;;;;;;;;;;;;;;;;;;5072985;28;19958;-43
2023/05/20 08:29:15;;;;;;;;;;;;;;;;;;5088208;28;19908;-42
2023/05/20 08:31:41;;;;;;;;;;;;;;;;;;5089285;28;19915;-42
2023/05/20 08:34:07;;;;;;;;;;;;;;;;;;5088411;28;19942;-44
2023/05/20 08:36:33;;;;;;;;;;;;;;;;;;5087940;28;20004;-43
2023/05/20 08:38:59;;;;;;;;;;;;;;;;;;5087185;28;20410;-44
2023/05/20 08:41:25;;;;;;;;;;;;;;;;;;5088178;28;19974;-42
2023/05/20 08:43:51;;;;;;;;;;;;;;;;;;5088444;28;19904;-44
2023/05/20 08:46:19;;;;;;;;;;;;;;;;;;5087873;28;20146;-43
2023/05/20 08:48:46;;;;;;;;;;;;;;;;;;5088026;28;19908;-42
2023/05/20 08:51:12;;;;;;;;;;;;;;;;;;5088068;28;19918;-46
2023/05/20 08:53:38;;;;;;;;;;;;;;;;;;5083856;28;19995;-44
2023/05/20 08:56:04;;;;;;;;;;;;;;;;;;5108360;28;19934;-44
2023/05/20 08:58:30;;;;;;;;;;;;;;;;;;5106732;28;20019;-45
2023/05/20 09:00:57;;;;;;;;;;;;;;;;;;5106814;28;20336;-43
2023/05/20 09:03:24;;;;;;;;;;;;;;;;;;5108287;28;19912;-45
2023/05/20 09:05:50;;;;;;;;;;;;;;;;;;5096992;28;19923;-45
2023/05/20 09:08:16;;;;;;;;;;;;;;;;;;5088063;28;19943;-43
2023/05/20 09:10:42;;;;;;;;;;;;;;;;;;5077454;28;20598;-43
2023/05/20 09:13:09;;;;;;;;;;;;;;;;;;5084252;28;19990;-42
2023/05/20 09:15:35;;;;;;;;;;;;;;;;;;5087559;28;19912;-44
2023/05/20 09:18:01;;;;;;;;;;;;;;;;;;5067023;28;19913;-43
2023/05/20 09:20:30;;;;;;;;;;;;;;;;;;5076564;28;20436;-44
2023/05/20 09:22:56;;;;;;;;;;;;;;;;;;5086695;28;19958;-43
2023/05/20 09:25:22;;;;;;;;;;;;;;;;;;5086647;28;20374;-44
2023/05/20 09:27:48;;;;;;;;;;;;;;;;;;5076019;28;19921;-43
2023/05/20 09:30:14;;;;;;;;;;;;;;;;;;5086647;28;19929;-42
2023/05/20 09:32:41;;;;;;;;;;;;;;;;;;5086220;28;19912;-45
2023/05/20 09:35:07;;;;;;;;;;;;;;;;;;5086514;28;19912;-44
2023/05/20 09:37:35;;;;;;;;;;;;;;;;;;5086541;28;20406;-42
2023/05/20 09:40:01;;;;;;;;;;;;;;;;;;5086865;28;20395;-43
2023/05/20 09:42:27;;;;;;;;;;;;;;;;;;5085989;28;19912;-44
2023/05/20 09:44:53;;;;;;;;;;;;;;;;;;5086924;28;20502;-42
2023/05/20 09:47:19;;;;;;;;;;;;;;;;;;5087124;28;20002;-43
2023/05/20 09:49:47;;;;;;;;;;;;;;;;;;5090404;28;19915;-45
2023/05/20 09:52:12;;;;;;;;;;;;;;;;;;5093956;28;20321;-43
2023/05/20 09:54:38;;;;;;;;;;;;;;;;;;5090155;28;19916;-43
2023/05/20 09:57:04;;;;;;;;;;;;;;;;;;5089951;28;19958;-44
2023/05/20 09:59:30;;;;;;;;;;;;;;;;;;5090407;28;20010;-44
2023/05/20 10:01:57;;;;;;;;;;;;;;;;;;5091368;28;19912;-45
2023/05/20 10:04:23;;;;;;;;;;;;;;;;;;5110165;28;20305;-44
2023/05/20 10:06:49;;;;;;;;;;;;;;;;;;5110381;28;20010;-45
2023/05/20 10:09:15;;;;;;;;;;;;;;;;;;5098905;28;19952;-47
2023/05/20 10:11:41;;;;;;;;;;;;;;;;;;5089136;28;19912;-43
2023/05/20 10:14:07;;;;;;;;;;;;;;;;;;5089544;28;20011;-43
2023/05/20 10:16:33;;;;;;;;;;;;;;;;;;5088737;28;19927;-44
2023/05/20 10:18:59;;;;;;;;;;;;;;;;;;5089754;28;19974;-46
2023/05/20 10:21:25;;;;;;;;;;;;;;;;;;5089660;28;19943;-42
2023/05/20 10:23:51;;;;;;;;;;;;;;;;;;5100187;28;20189;-44
2023/05/20 10:26:17;;;;;;;;;;;;;;;;;;5097917;28;19919;-44
2023/05/20 10:28:43;;;;;;;;;;;;;;;;;;5082997;28;19916;-44
2023/05/20 10:31:09;;;;;;;;;;;;;;;;;;5072924;28;19975;-44
2023/05/20 10:33:34;;;;;;;;;;;;;;;;;;5090690;28;19916;-43
2023/05/20 10:36:01;;;;;;;;;;;;;;;;;;5091912;28;19920;-43
2023/05/20 10:38:27;;;;;;;;;;;;;;;;;;5090702;28;19912;-43
2023/05/20 10:40:53;;;;;;;;;;;;;;;;;;5086168;28;20271;-43
2023/05/20 10:43:19;;;;;;;;;;;;;;;;;;5081871;28;19912;-45
2023/05/20 10:45:45;;;;;;;;;;;;;;;;;;5084412;28;19920;-43
2023/05/20 10:48:11;;;;;;;;;;;;;;;;;;5086408;28;19938;-43
2023/05/20 10:50:37;;;;;;;;;;;;;;;;;;5088602;28;19912;-43
2023/05/20 10:53:04;;;;;;;;;;;;;;;;;;5083508;28;19916;-42
2023/05/20 10:55:30;;;;;;;;;;;;;;;;;;5088807;28;19951;-47
2023/05/20 10:57:56;;;;;;;;;;;;;;;;;;5083873;28;20000;-45
2023/05/20 11:00:21;;;;;;;;;;;;;;;;;;5083343;28;19924;-44
2023/05/20 11:02:47;;;;;;;;;;;;;;;;;;5082164;28;19917;-44
2023/05/20 11:05:13;;;;;;;;;;;;;;;;;;5079391;28;19924;-43
2023/05/20 11:07:40;;;;;;;;;;;;;;;;;;5083390;28;19917;-46
2023/05/20 11:10:06;;;;;;;;;;;;;;;;;;5082106;28;19920;-44
2023/05/20 11:12:32;;;;;;;;;;;;;;;;;;5067579;28;19913;-45
2023/05/20 11:14:57;;;;;;;;;;;;;;;;;;5082442;28;19995;-45
2023/05/20 11:17:23;;;;;;;;;;;;;;;;;;5081710;28;19920;-44
2023/05/20 11:19:50;;;;;;;;;;;;;;;;;;5085992;28;19965;-45
2023/05/20 11:22:16;;;;;;;;;;;;;;;;;;5087517;28;19916;-45
2023/05/20 11:24:41;;;;;;;;;;;;;;;;;;5087104;28;19920;-44
2023/05/20 11:27:08;;;;;;;;;;;;;;;;;;5086689;28;20006;-44
2023/05/20 11:29:34;;;;;;;;;;;;;;;;;;5102753;28;19916;-44
2023/05/20 11:32:00;;;;;;;;;;;;;;;;;;5086837;28;20007;-44
2023/05/20 11:34:26;;;;;;;;;;;;;;;;;;5087442;28;19912;-45
2023/05/20 11:36:52;;;;;;;;;;;;;;;;;;5087001;28;19916;-44
2023/05/20 11:39:18;;;;;;;;;;;;;;;;;;5068771;28;19917;-44
2023/05/20 11:41:44;;;;;;;;;;;;;;;;;;5083375;28;19909;-44
2023/05/20 11:44:13;;;;;;;;;;;;;;;;;;5067037;28;19947;-45
2023/05/20 11:46:39;;;;;;;;;;;;;;;;;;5087107;28;19912;-46
2023/05/20 11:49:07;;;;;;;;;;;;;;;;;;5084119;28;19943;-45
2023/05/20 11:51:33;;;;;;;;;;;;;;;;;;5085574;28;19912;-45
2023/05/20 11:54:00;;;;;;;;;;;;;;;;;;5081662;28;19947;-48
2023/05/20 11:56:26;;;;;;;;;;;;;;;;;;5091377;28;19981;-45
2023/05/20 11:58:52;;;;;;;;;;;;;;;;;;5084290;28;20283;-45
2023/05/20 12:01:17;;;;;;;;;;;;;;;;;;5085666;28;19916;-44
2023/05/20 12:03:43;;;;;;;;;;;;;;;;;;5079418;28;19916;-46
2023/05/20 12:06:09;;;;;;;;;;;;;;;;;;5084692;28;19923;-47
2023/05/20 12:08:35;;;;;;;;;;;;;;;;;;5085041;28;19964;-44
2023/05/20 12:11:01;;;;;;;;;;;;;;;;;;5084610;28;19967;-46
2023/05/20 12:13:27;;;;;;;;;;;;;;;;;;5083358;28;19947;-47
2023/05/20 12:15:53;;;;;;;;;;;;;;;;;;5086347;28;19916;-48
2023/05/20 12:18:19;;;;;;;;;;;;;;;;;;5082263;28;20506;-47
2023/05/20 12:20:45;;;;;;;;;;;;;;;;;;5085965;28;19916;-46
2023/05/20 12:23:11;;;;;;;;;;;;;;;;;;5082692;28;19916;-48
2023/05/20 12:25:37;;;;;;;;;;;;;;;;;;5085961;28;19989;-47
2023/05/20 12:28:03;;;;;;;;;;;;;;;;;;5083789;28;19916;-46
2023/05/20 12:30:29;;;;;;;;;;;;;;;;;;5083878;28;19912;-45
2023/05/20 12:32:55;;;;;;;;;;;;;;;;;;5079667;28;19963;-48
2023/05/20 12:35:22;;;;;;;;;;;;;;;;;;5077237;28;19924;-46
2023/05/20 12:37:49;;;;;;;;;;;;;;;;;;5081810;28;20225;-46
2023/05/20 12:40:15;;;;;;;;;;;;;;;;;;5085062;28;20402;-45
2023/05/20 12:42:41;;;;;;;;;;;;;;;;;;5083440;28;19931;-45
2023/05/20 12:45:12;;;;;;;;;;;;;;;;;;5079525;28;19920;-46
2023/05/20 12:47:38;;;;;;;;;;;;;;;;;;5083598;28;19973;-45
2023/05/20 12:50:03;;;;;;;;;;;;;;;;;;5082133;28;20420;-45
2023/05/20 12:52:29;;;;;;;;;;;;;;;;;;5084309;28;19918;-48
2023/05/20 12:54:55;;;;;;;;;;;;;;;;;;5074970;28;19970;-45
2023/05/20 12:57:21;;;;;;;;;;;;;;;;;;5081943;28;19924;-47
2023/05/20 12:59:47;;;;;;;;;;;;;;;;;;5083917;28;20514;-44
2023/05/20 13:02:13;;;;;;;;;;;;;;;;;;5086092;28;19908;-45
2023/05/20 13:04:39;;;;;;;;;;;;;;;;;;5082834;28;19920;-45
2023/05/20 13:07:05;;;;;;;;;;;;;;;;;;5085612;28;20001;-45
2023/05/20 13:09:32;;;;;;;;;;;;;;;;;;5065308;28;19917;-45
2023/05/20 13:14:42;;;;;;;;;;;;;;;;;;5073145;28;20013;-45
2023/05/20 13:17:08;;;;;;;;;;;;;;;;;;5085656;28;20390;-45
2023/05/20 13:19:34;;;;;;;;;;;;;;;;;;5085488;28;19912;-44
2023/05/20 13:22:00;;;;;;;;;;;;;;;;;;5087622;28;20144;-45
2023/05/20 13:24:26;;;;;;;;;;;;;;;;;;5088681;28;19924;-48
2023/05/20 13:26:52;;;;;;;;;;;;;;;;;;5090946;28;19935;-45
2023/05/20 13:29:18;;;;;;;;;;;;;;;;;;5088732;28;19916;-45
2023/05/20 13:31:44;;;;;;;;;;;;;;;;;;5085938;28;19927;-44
2023/05/20 13:34:10;;;;;;;;;;;;;;;;;;5071799;28;20259;-45
2023/05/20 13:36:35;;;;;;;;;;;;;;;;;;5070584;28;19912;-44
2023/05/20 13:39:01;;;;;;;;;;;;;;;;;;5080963;28;19907;-46
2023/05/20 13:41:29;;;;;;;;;;;;;;;;;;5084973;28;19916;-46
2023/05/20 13:43:56;;;;;;;;;;;;;;;;;;5083947;28;19920;-45
2023/05/20 13:46:22;;;;;;;;;;;;;;;;;;5090429;28;19912;-47
2023/05/20 13:48:48;;;;;;;;;;;;;;;;;;5088511;28;19916;-44
2023/05/20 13:51:14;;;;;;;;;;;;;;;;;;5090437;28;19955;-45
2023/05/20 13:53:40;;;;;;;;;;;;;;;;;;5089317;28;19912;-46
2023/05/20 13:56:08;;;;;;;;;;;;;;;;;;5089930;28;19912;-44
2023/05/20 13:58:35;;;;;;;;;;;;;;;;;;5090376;28;20241;-45
2023/05/20 14:01:03;;;;;;;;;;;;;;;;;;5092074;28;19915;-44
2023/05/20 14:03:29;;;;;;;;;;;;;;;;;;5093205;28;20311;-44
2023/05/20 14:05:56;;;;;;;;;;;;;;;;;;5091676;28;20003;-47
2023/05/20 14:08:22;;;;;;;;;;;;;;;;;;5091655;28;20585;-45
2023/05/20 14:10:48;;;;;;;;;;;;;;;;;;5088931;28;20010;-44
2023/05/20 14:13:14;;;;;;;;;;;;;;;;;;5088978;28;20003;-45
2023/05/20 14:15:40;;;;;;;;;;;;;;;;;;5087376;28;19966;-47
2023/05/20 14:18:06;;;;;;;;;;;;;;;;;;5086846;28;19978;-46
2023/05/20 14:20:32;;;;;;;;;;;;;;;;;;5087204;28;20111;-45
2023/05/20 14:23:00;;;;;;;;;;;;;;;;;;5086053;28;19919;-45
2023/05/20 14:25:27;;;;;;;;;;;;;;;;;;5086101;28;19990;-48
2023/05/20 14:27:53;;;;;;;;;;;;;;;;;;5101978;28;19922;-47
2023/05/20 14:30:19;;;;;;;;;;;;;;;;;;5080772;28;20383;-46
2023/05/20 14:32:45;;;;;;;;;;;;;;;;;;5084070;28;19924;-47
2023/05/20 14:35:11;;;;;;;;;;;;;;;;;;5087062;28;19999;-46
2023/05/20 14:37:37;;;;;;;;;;;;;;;;;;5085910;28;20321;-46
2023/05/20 14:40:03;;;;;;;;;;;;;;;;;;5085470;28;19941;-44
2023/05/20 14:42:29;;;;;;;;;;;;;;;;;;5086591;28;19961;-48
2023/05/20 14:44:56;;;;;;;;;;;;;;;;;;5089059;28;20352;-45
2023/05/20 14:47:22;;;;;;;;;;;;;;;;;;5086447;28;19916;-45
2023/05/20 14:49:48;;;;;;;;;;;;;;;;;;5086033;28;20303;-45
2023/05/20 14:52:15;;;;;;;;;;;;;;;;;;5087349;28;19916;-46
2023/05/20 14:54:42;;;;;;;;;;;;;;;;;;5086420;28;19953;-48
2023/05/20 14:57:08;;;;;;;;;;;;;;;;;;5086600;28;19912;-46
2023/05/20 14:59:35;;;;;;;;;;;;;;;;;;5085925;28;19912;-46
2023/05/20 15:02:01;;;;;;;;;;;;;;;;;;5084428;28;20291;-48
2023/05/20 15:04:27;;;;;;;;;;;;;;;;;;5086550;28;19919;-46
2023/05/20 15:06:53;;;;;;;;;;;;;;;;;;5086151;28;19916;-46
2023/05/20 15:09:19;;;;;;;;;;;;;;;;;;5066322;28;19927;-45
2023/05/20 15:11:44;;;;;;;;;;;;;;;;;;5084090;28;19962;-45
2023/05/20 15:14:10;;;;;;;;;;;;;;;;;;5059432;28;19919;-46
2023/05/20 15:16:37;;;;;;;;;;;;;;;;;;5066336;28;20668;-46
2023/05/20 15:19:03;;;;;;;;;;;;;;;;;;5084645;28;19916;-48
2023/05/20 15:21:30;;;;;;;;;;;;;;;;;;5086163;28;19908;-46
2023/05/20 15:23:56;;;;;;;;;;;;;;;;;;5101120;28;19916;-45
2023/05/20 15:26:23;;;;;;;;;;;;;;;;;;5101966;28;19908;-48
2023/05/20 15:28:48;;;;;;;;;;;;;;;;;;5094900;28;19923;-47
2023/05/20 15:31:14;;;;;;;;;;;;;;;;;;5080591;28;19920;-48
2023/05/20 15:33:40;;;;;;;;;;;;;;;;;;5086062;28;20010;-45
2023/05/20 15:36:06;;;;;;;;;;;;;;;;;;5086265;28;19910;-46
2023/05/20 15:38:33;;;;;;;;;;;;;;;;;;5085788;28;19912;-45
2023/05/20 15:41:01;;;;;;;;;;;;;;;;;;5085767;28;19974;-45
2023/05/20 15:43:26;;;;;;;;;;;;;;;;;;5084510;28;19912;-45
2023/05/20 15:45:53;;;;;;;;;;;;;;;;;;5090622;28;20325;-49
2023/05/20 15:48:19;;;;;;;;;;;;;;;;;;5096393;28;19912;-48
2023/05/20 15:50:45;;;;;;;;;;;;;;;;;;5096366;28;19927;-47
2023/05/20 15:53:11;;;;;;;;;;;;;;;;;;5084884;28;19912;-49
2023/05/20 15:55:37;;;;;;;;;;;;;;;;;;5069051;28;19935;-48
2023/05/20 15:58:03;;;;;;;;;;;;;;;;;;5086960;28;19920;-44
2023/05/20 16:00:30;;;;;;;;;;;;;;;;;;5094512;28;19912;-49
2023/05/20 16:02:55;;;;;;;;;;;;;;;;;;5087193;28;19947;-45
2023/05/20 16:05:25;;;;;;;;;;;;;;;;;;5086348;28;20406;-45
2023/05/20 16:07:51;;;;;;;;;;;;;;;;;;5086674;28;20283;-49
2023/05/20 16:10:17;;;;;;;;;;;;;;;;;;5086550;28;20275;-48
2023/05/20 16:12:42;;;;;;;;;;;;;;;;;;5087603;28;19908;-45
2023/05/20 16:15:09;;;;;;;;;;;;;;;;;;5081608;28;19916;-44
2023/05/20 16:17:35;;;;;;;;;;;;;;;;;;5086998;28;19908;-49
2023/05/20 16:20:00;;;;;;;;;;;;;;;;;;5085694;28;20640;-49
2023/05/20 16:22:26;;;;;;;;;;;;;;;;;;5086775;28;19915;-45
2023/05/20 16:24:52;;;;;;;;;;;;;;;;;;5086190;28;19916;-50
2023/05/20 16:27:18;;;;;;;;;;;;;;;;;;5086795;28;20378;-48
2023/05/20 16:29:46;;;;;;;;;;;;;;;;;;5073893;28;19920;-45
2023/05/20 16:32:12;;;;;;;;;;;;;;;;;;5077951;28;19997;-49
2023/05/20 16:34:38;;;;;;;;;;;;;;;;;;5085340;28;19922;-49
2023/05/20 16:37:04;;;;;;;;;;;;;;;;;;5094695;28;20531;-48
2023/05/20 16:39:30;;;;;;;;;;;;;;;;;;5106789;28;19987;-47
2023/05/20 16:41:56;;;;;;;;;;;;;;;;;;5069510;28;20010;-46
2023/05/20 16:44:22;;;;;;;;;;;;;;;;;;5086228;28;19957;-46
2023/05/20 16:46:47;;;;;;;;;;;;;;;;;;5084851;28;20030;-48
2023/05/20 16:49:13;;;;;;;;;;;;;;;;;;5086322;28;19981;-45
2023/05/20 16:51:40;;;;;;;;;;;;;;;;;;5079101;28;19913;-49
2023/05/20 16:54:07;;;;;;;;;;;;;;;;;;5091571;28;20315;-50
2023/05/20 16:56:34;;;;;;;;;;;;;;;;;;5085704;28;19912;-45
2023/05/20 16:59:00;;;;;;;;;;;;;;;;;;5085769;28;19920;-48
2023/05/20 17:01:27;;;;;;;;;;;;;;;;;;5084216;28;20766;-48
2023/05/20 17:03:53;;;;;;;;;;;;;;;;;;5085602;28;19912;-45
2023/05/20 17:06:19;;;;;;;;;;;;;;;;;;5085561;28;19926;-48
2023/05/20 17:08:45;;;;;;;;;;;;;;;;;;5085549;28;19922;-48
2023/05/20 17:11:11;;;;;;;;;;;;;;;;;;5082180;28;19916;-46
2023/05/20 17:13:40;;;;;;;;;;;;;;;;;;5085672;28;19943;-49
2023/05/20 17:16:06;;;;;;;;;;;;;;;;;;5084245;28;20452;-48
2023/05/20 17:18:32;;;;;;;;;;;;;;;;;;5082732;28;19916;-45
2023/05/20 17:20:57;;;;;;;;;;;;;;;;;;5080951;28;19918;-47
2023/05/20 17:23:24;;;;;;;;;;;;;;;;;;5083904;28;20339;-46
2023/05/20 17:25:50;;;;;;;;;;;;;;;;;;5083110;28;19926;-49
2023/05/20 17:28:17;;;;;;;;;;;;;;;;;;5084650;28;19916;-46
2023/05/20 17:30:43;;;;;;;;;;;;;;;;;;5079448;28;19919;-46
2023/05/20 17:33:09;;;;;;;;;;;;;;;;;;5083282;28;19917;-46
2023/05/20 17:35:36;;;;;;;;;;;;;;;;;;5082208;28;19920;-45
2023/05/20 17:38:03;;;;;;;;;;;;;;;;;;5081259;28;19998;-46
2023/05/20 17:40:29;;;;;;;;;;;;;;;;;;5083730;28;19920;-47
2023/05/20 17:42:55;;;;;;;;;;;;;;;;;;5083348;28;20387;-47
2023/05/20 17:45:21;;;;;;;;;;;;;;;;;;5070143;28;19923;-48
2023/05/20 17:47:47;;;;;;;;;;;;;;;;;;5072484;28;19912;-45
2023/05/20 17:50:15;;;;;;;;;;;;;;;;;;5083078;28;19919;-45
2023/05/20 17:52:41;;;;;;;;;;;;;;;;;;5083858;28;20276;-49
2023/05/20 17:55:08;;;;;;;;;;;;;;;;;;5083820;28;19919;-49
2023/05/20 17:57:34;;;;;;;;;;;;;;;;;;5072151;28;19913;-47
2023/05/20 18:00:01;;;;;;;;;;;;;;;;;;5080569;28;19916;-45
2023/05/20 18:02:27;;;;;;;;;;;;;;;;;;5083547;28;19963;-47
2023/05/20 18:04:53;;;;;;;;;;;;;;;;;;5082134;28;19959;-48
2023/05/20 18:07:19;;;;;;;;;;;;;;;;;;5079574;28;20299;-49
2023/05/20 18:09:45;;;;;;;;;;;;;;;;;;5085878;28;20296;-46
2023/05/20 18:12:11;;;;;;;;;;;;;;;;;;5086468;28;19923;-47
2023/05/20 18:14:37;;;;;;;;;;;;;;;;;;5087557;28;19923;-48
2023/05/20 18:17:03;;;;;;;;;;;;;;;;;;5085485;28;20379;-47
2023/05/20 18:19:29;;;;;;;;;;;;;;;;;;5086442;28;20005;-48
2023/05/20 18:21:57;;;;;;;;;;;;;;;;;;5085380;28;19920;-47
2023/05/20 18:24:23;;;;;;;;;;;;;;;;;;5084999;28;20016;-46
2023/05/20 18:26:50;;;;;;;;;;;;;;;;;;5066297;28;19974;-46
2023/05/20 18:29:17;;;;;;;;;;;;;;;;;;5069141;28;19975;-49
2023/05/20 18:31:42;;;;;;;;;;;;;;;;;;5086777;28;19913;-47
2023/05/20 18:34:09;;;;;;;;;;;;;;;;;;5086858;28;19922;-49
2023/05/20 18:36:36;;;;;;;;;;;;;;;;;;5081806;28;19916;-48
2023/05/20 18:39:01;;;;;;;;;;;;;;;;;;5086183;28;19923;-47
2023/05/20 18:41:27;;;;;;;;;;;;;;;;;;5087063;28;19912;-46
2023/05/20 18:43:55;;;;;;;;;;;;;;;;;;5086330;28;19939;-46
2023/05/20 18:46:21;;;;;;;;;;;;;;;;;;5085772;28;20381;-46
2023/05/20 18:48:47;;;;;;;;;;;;;;;;;;5075189;28;19913;-46
2023/05/20 18:51:13;;;;;;;;;;;;;;;;;;5086641;28;20287;-49
2023/05/20 18:53:39;;;;;;;;;;;;;;;;;;5086998;28;19912;-46
2023/05/20 18:56:05;;;;;;;;;;;;;;;;;;5085944;28;19927;-49
2023/05/20 18:58:31;;;;;;;;;;;;;;;;;;5086137;28;19916;-45
2023/05/20 19:00:57;;;;;;;;;;;;;;;;;;5086505;28;19916;-47
2023/05/20 19:03:24;;;;;;;;;;;;;;;;;;5085817;28;19918;-48
2023/05/20 19:05:50;;;;;;;;;;;;;;;;;;5067275;28;20377;-48
2023/05/20 19:08:16;;;;;;;;;;;;;;;;;;5111025;27;20010;-48
2023/05/20 19:10:41;;;;;;;;;;;;;;;;;;5087657;28;20015;-46
2023/05/20 19:13:07;;;;;;;;;;;;;;;;;;5054361;28;19920;-47
2023/05/20 19:15:33;;;;;;;;;;;;;;;;;;5085695;28;20500;-46
2023/05/20 19:17:59;;;;;;;;;;;;;;;;;;5085437;28;19912;-47
2023/05/20 19:20:25;;;;;;;;;;;;;;;;;;5085589;28;20314;-50
2023/05/20 19:22:51;;;;;;;;;;;;;;;;;;5082925;28;19912;-50
2023/05/20 19:25:17;;;;;;;;;;;;;;;;;;5086020;28;19920;-45
2023/05/20 19:27:43;;;;;;;;;;;;;;;;;;5086991;28;20388;-48
2023/05/20 19:30:09;;;;;;;;;;;;;;;;;;5084882;28;19919;-50
2023/05/20 19:32:36;;;;;;;;;;;;;;;;;;5090032;28;19955;-48
2023/05/20 19:35:04;;;;;;;;;;;;;;;;;;5083982;28;19916;-47
2023/05/20 19:37:31;;;;;;;;;;;;;;;;;;5085150;28;19916;-48
2023/05/20 19:39:57;;;;;;;;;;;;;;;;;;5096537;28;19924;-49
2023/05/20 19:42:24;;;;;;;;;;;;;;;;;;5094451;28;20359;-50
2023/05/20 19:44:50;;;;;;;;;;;;;;;;;;5087201;28;20462;-46
2023/05/20 19:47:16;;;;;;;;;;;;;;;;;;5066704;28;20019;-49
2023/05/20 19:49:42;;;;;;;;;;;;;;;;;;5074437;28;19924;-49
2023/05/20 19:52:08;;;;;;;;;;;;;;;;;;5078700;28;19916;-50
2023/05/20 19:54:34;;;;;;;;;;;;;;;;;;5077056;28;20461;-50
2023/05/20 19:57:00;;;;;;;;;;;;;;;;;;5084363;28;19923;-48
2023/05/20 19:59:27;;;;;;;;;;;;;;;;;;5082643;28;20402;-49
2023/05/20 20:01:53;;;;;;;;;;;;;;;;;;5097357;28;19919;-49
2023/05/20 20:04:20;;;;;;;;;;;;;;;;;;5105912;28;19963;-48
2023/05/20 20:06:46;;;;;;;;;;;;;;;;;;5103263;28;19912;-46
2023/05/20 20:09:12;;;;;;;;;;;;;;;;;;5106221;28;19919;-47
2023/05/20 20:11:38;;;;;;;;;;;;;;;;;;5084449;28;20302;-50
2023/05/20 20:14:04;;;;;;;;;;;;;;;;;;5096235;28;19946;-48
2023/05/20 20:16:30;;;;;;;;;;;;;;;;;;5085609;28;20449;-46
2023/05/20 20:18:56;;;;;;;;;;;;;;;;;;5084032;28;20003;-48
2023/05/20 20:21:24;;;;;;;;;;;;;;;;;;5079977;28;20020;-47
2023/05/20 20:23:50;;;;;;;;;;;;;;;;;;5084241;28;20280;-50
2023/05/20 20:26:16;;;;;;;;;;;;;;;;;;5084925;28;19927;-48
2023/05/20 20:28:42;;;;;;;;;;;;;;;;;;5102050;28;19927;-47
2023/05/20 20:31:08;;;;;;;;;;;;;;;;;;5084542;28;19922;-49
2023/05/20 20:33:34;;;;;;;;;;;;;;;;;;5084103;28;19935;-46
2023/05/20 20:36:01;;;;;;;;;;;;;;;;;;5083188;28;19912;-47
2023/05/20 20:38:28;;;;;;;;;;;;;;;;;;5084364;28;20014;-50
2023/05/20 20:40:54;;;;;;;;;;;;;;;;;;5084291;28;19995;-48
2023/05/20 20:43:21;;;;;;;;;;;;;;;;;;5066267;28;20386;-49
2023/05/20 20:45:49;;;;;;;;;;;;;;;;;;5083326;28;19985;-45
2023/05/20 20:48:18;;;;;;;;;;;;;;;;;;5083808;28;19912;-47
2023/05/20 20:50:44;;;;;;;;;;;;;;;;;;5084486;28;19916;-48
2023/05/20 20:53:11;;;;;;;;;;;;;;;;;;5083972;28;20007;-50
2023/05/20 20:55:37;;;;;;;;;;;;;;;;;;5082060;28;19916;-50
2023/05/20 20:58:05;;;;;;;;;;;;;;;;;;5082248;28;20418;-47
2023/05/20 21:00:32;;;;;;;;;;;;;;;;;;5084668;28;20408;-45
2023/05/20 21:02:58;;;;;;;;;;;;;;;;;;5084499;28;19994;-48
2023/05/20 21:05:25;;;;;;;;;;;;;;;;;;5084471;28;20119;-47
2023/05/20 21:07:57;;;;;;;;;;;;;;;;;;5084718;28;19947;-50
2023/05/20 21:10:22;;;;;;;;;;;;;;;;;;5066372;28;19920;-46
2023/05/20 21:12:48;;;;;;;;;;;;;;;;;;5084430;28;19908;-47
2023/05/20 21:15:15;;;;;;;;;;;;;;;;;;5084889;28;20432;-47
2023/05/20 21:17:41;;;;;;;;;;;;;;;;;;5084698;28;20390;-49
2023/05/20 21:20:07;;;;;;;;;;;;;;;;;;5084197;28;19908;-47
2023/05/20 21:22:34;;;;;;;;;;;;;;;;;;5084825;28;19939;-50
2023/05/20 21:25:00;;;;;;;;;;;;;;;;;;5099829;28;19915;-48
2023/05/20 21:27:26;;;;;;;;;;;;;;;;;;5084702;28;19923;-51
2023/05/20 21:29:52;;;;;;;;;;;;;;;;;;5083791;28;20422;-47
2023/05/20 21:32:17;;;;;;;;;;;;;;;;;;5084555;28;19947;-46
2023/05/20 21:34:44;;;;;;;;;;;;;;;;;;5084968;28;20145;-48
2023/05/20 21:37:10;;;;;;;;;;;;;;;;;;5084329;28;20386;-50
2023/05/20 21:39:37;;;;;;;;;;;;;;;;;;5081555;28;19950;-50
2023/05/20 21:42:05;;;;;;;;;;;;;;;;;;5068119;28;19970;-49
2023/05/20 21:44:31;;;;;;;;;;;;;;;;;;5067147;28;19942;-49